sensor_id;sensor_type;location;lat;lon;timestamp;P1;durP1;ratioP1;P2;durP2;ratioP2
15312;SDS011;7757;52.626;4.746;2023-09-19T00:00:37;11.85;;;1.70;;
15312;SDS011;7757;52.626;4.746;2023-09-19T00:03:03;10.65;;;2.00;;
15312;SDS011;7757;52.626;4.746;2023-09-19T00:05:35;8.43;;;1.70;;
15312;SDS011;7757;52.626;4.746;2023-09-19T00:08:04;11.23;;;1.88;;
15312;SDS011;7757;52.626;4.746;2023-09-19T00:10:30;11.68;;;1.80;;
15312;SDS011;7757;52.626;4.746;2023-09-19T00:12:57;12.13;;;1.70;;
15312;SDS011;7757;52.626;4.746;2023-09-19T00:15:30;10.45;;;1.85;;
15312;SDS011;7757;52.626;4.746;2023-09-19T00:17:56;9.57;;;1.88;;
15312;SDS011;7757;52.626;4.746;2023-09-19T00:20:25;8.75;;;1.80;;
15312;SDS011;7757;52.626;4.746;2023-09-19T00:22:51;10.45;;;1.73;;
15312;SDS011;7757;52.626;4.746;2023-09-19T00:25:17;11.02;;;1.60;;
15312;SDS011;7757;52.626;4.746;2023-09-19T00:27:43;9.07;;;1.67;;
15312;SDS011;7757;52.626;4.746;2023-09-19T00:30:10;8.27;;;1.58;;
15312;SDS011;7757;52.626;4.746;2023-09-19T00:32:45;11.93;;;1.90;;
15312;SDS011;7757;52.626;4.746;2023-09-19T00:35:13;10.65;;;1.70;;
15312;SDS011;7757;52.626;4.746;2023-09-19T00:37:59;15.13;;;1.70;;
15312;SDS011;7757;52.626;4.746;2023-09-19T00:40:26;9.32;;;1.63;;
15312;SDS011;7757;52.626;4.746;2023-09-19T00:42:52;11.45;;;1.98;;
15312;SDS011;7757;52.626;4.746;2023-09-19T00:45:25;10.43;;;1.48;;
15312;SDS011;7757;52.626;4.746;2023-09-19T00:47:52;8.35;;;1.52;;
15312;SDS011;7757;52.626;4.746;2023-09-19T00:50:19;13.00;;;1.90;;
15312;SDS011;7757;52.626;4.746;2023-09-19T00:52:48;13.70;;;1.85;;
15312;SDS011;7757;52.626;4.746;2023-09-19T00:55:15;7.82;;;1.50;;
15312;SDS011;7757;52.626;4.746;2023-09-19T00:57:44;10.18;;;1.55;;
15312;SDS011;7757;52.626;4.746;2023-09-19T01:00:10;9.05;;;1.42;;
15312;SDS011;7757;52.626;4.746;2023-09-19T01:02:44;8.38;;;1.70;;
15312;SDS011;7757;52.626;4.746;2023-09-19T01:05:10;8.77;;;1.52;;
15312;SDS011;7757;52.626;4.746;2023-09-19T01:07:37;9.38;;;1.65;;
15312;SDS011;7757;52.626;4.746;2023-09-19T01:10:06;12.95;;;2.00;;
15312;SDS011;7757;52.626;4.746;2023-09-19T01:23:20;8.32;;;1.70;;
15312;SDS011;7757;52.626;4.746;2023-09-19T01:26:06;11.60;;;1.70;;
15312;SDS011;7757;52.626;4.746;2023-09-19T01:31:38;10.13;;;1.50;;
15312;SDS011;7757;52.626;4.746;2023-09-19T01:34:07;11.10;;;1.85;;
15312;SDS011;7757;52.626;4.746;2023-09-19T01:36:36;12.20;;;2.17;;
15312;SDS011;7757;52.626;4.746;2023-09-19T01:39:09;13.13;;;2.00;;
15312;SDS011;7757;52.626;4.746;2023-09-19T01:45:03;11.13;;;1.63;;
15312;SDS011;7757;52.626;4.746;2023-09-19T01:47:35;12.23;;;1.70;;
15312;SDS011;7757;52.626;4.746;2023-09-19T01:52:49;9.68;;;1.60;;
15312;SDS011;7757;52.626;4.746;2023-09-19T01:55:22;11.55;;;1.52;;
15312;SDS011;7757;52.626;4.746;2023-09-19T01:57:54;7.03;;;1.42;;
15312;SDS011;7757;52.626;4.746;2023-09-19T02:00:27;14.93;;;1.83;;
15312;SDS011;7757;52.626;4.746;2023-09-19T02:02:55;9.00;;;1.65;;
15312;SDS011;7757;52.626;4.746;2023-09-19T02:05:23;10.27;;;1.50;;
15312;SDS011;7757;52.626;4.746;2023-09-19T02:07:50;9.05;;;1.73;;
15312;SDS011;7757;52.626;4.746;2023-09-19T02:10:15;10.52;;;1.83;;
15312;SDS011;7757;52.626;4.746;2023-09-19T02:12:42;8.82;;;1.60;;
15312;SDS011;7757;52.626;4.746;2023-09-19T02:15:07;8.90;;;1.73;;
15312;SDS011;7757;52.626;4.746;2023-09-19T02:17:36;8.60;;;1.67;;
15312;SDS011;7757;52.626;4.746;2023-09-19T02:20:03;8.02;;;1.50;;
15312;SDS011;7757;52.626;4.746;2023-09-19T02:22:36;8.27;;;1.63;;
15312;SDS011;7757;52.626;4.746;2023-09-19T02:25:03;9.75;;;1.70;;
15312;SDS011;7757;52.626;4.746;2023-09-19T02:27:29;9.75;;;1.60;;
15312;SDS011;7757;52.626;4.746;2023-09-19T02:29:55;10.25;;;1.65;;
15312;SDS011;7757;52.626;4.746;2023-09-19T02:32:21;10.05;;;1.70;;
15312;SDS011;7757;52.626;4.746;2023-09-19T02:34:48;7.32;;;1.48;;
15312;SDS011;7757;52.626;4.746;2023-09-19T02:37:13;13.50;;;1.77;;
15312;SDS011;7757;52.626;4.746;2023-09-19T02:39:41;9.00;;;1.55;;
15312;SDS011;7757;52.626;4.746;2023-09-19T02:42:06;11.25;;;1.67;;
15312;SDS011;7757;52.626;4.746;2023-09-19T02:44:32;12.02;;;1.83;;
15312;SDS011;7757;52.626;4.746;2023-09-19T02:46:59;12.48;;;1.60;;
15312;SDS011;7757;52.626;4.746;2023-09-19T02:49:24;12.45;;;1.80;;
15312;SDS011;7757;52.626;4.746;2023-09-19T02:51:50;10.60;;;1.83;;
15312;SDS011;7757;52.626;4.746;2023-09-19T02:54:15;12.40;;;1.60;;
15312;SDS011;7757;52.626;4.746;2023-09-19T02:56:42;13.57;;;1.90;;
15312;SDS011;7757;52.626;4.746;2023-09-19T02:59:08;12.55;;;1.80;;
15312;SDS011;7757;52.626;4.746;2023-09-19T03:01:37;10.70;;;1.58;;
15312;SDS011;7757;52.626;4.746;2023-09-19T03:04:03;13.85;;;2.10;;
15312;SDS011;7757;52.626;4.746;2023-09-19T03:06:32;13.38;;;2.10;;
15312;SDS011;7757;52.626;4.746;2023-09-19T03:08:57;17.48;;;1.90;;
15312;SDS011;7757;52.626;4.746;2023-09-19T03:11:25;12.48;;;2.33;;
15312;SDS011;7757;52.626;4.746;2023-09-19T03:13:51;11.75;;;2.10;;
15312;SDS011;7757;52.626;4.746;2023-09-19T03:16:17;17.65;;;2.05;;
15312;SDS011;7757;52.626;4.746;2023-09-19T03:18:47;12.10;;;2.00;;
15312;SDS011;7757;52.626;4.746;2023-09-19T03:21:14;11.90;;;1.90;;
15312;SDS011;7757;52.626;4.746;2023-09-19T03:23:40;13.20;;;2.05;;
15312;SDS011;7757;52.626;4.746;2023-09-19T03:26:05;14.55;;;1.90;;
15312;SDS011;7757;52.626;4.746;2023-09-19T03:28:32;12.63;;;1.88;;
15312;SDS011;7757;52.626;4.746;2023-09-19T03:31:02;17.20;;;2.75;;
15312;SDS011;7757;52.626;4.746;2023-09-19T03:33:29;10.63;;;2.10;;
15312;SDS011;7757;52.626;4.746;2023-09-19T03:36:00;10.55;;;2.00;;
15312;SDS011;7757;52.626;4.746;2023-09-19T03:38:29;11.88;;;1.92;;
15312;SDS011;7757;52.626;4.746;2023-09-19T03:40:57;14.50;;;2.30;;
15312;SDS011;7757;52.626;4.746;2023-09-19T03:43:23;11.18;;;2.15;;
15312;SDS011;7757;52.626;4.746;2023-09-19T03:45:48;10.07;;;1.77;;
15312;SDS011;7757;52.626;4.746;2023-09-19T03:48:14;10.35;;;1.80;;
15312;SDS011;7757;52.626;4.746;2023-09-19T03:50:39;10.13;;;1.83;;
15312;SDS011;7757;52.626;4.746;2023-09-19T03:53:05;16.55;;;2.00;;
15312;SDS011;7757;52.626;4.746;2023-09-19T03:55:32;10.13;;;1.80;;
15312;SDS011;7757;52.626;4.746;2023-09-19T03:57:58;12.38;;;2.05;;
15312;SDS011;7757;52.626;4.746;2023-09-19T04:00:25;11.43;;;1.70;;
15312;SDS011;7757;52.626;4.746;2023-09-19T04:02:51;11.40;;;2.05;;
15312;SDS011;7757;52.626;4.746;2023-09-19T04:05:18;12.57;;;2.10;;
15312;SDS011;7757;52.626;4.746;2023-09-19T04:07:44;13.32;;;1.98;;
15312;SDS011;7757;52.626;4.746;2023-09-19T04:10:11;10.95;;;1.98;;
15312;SDS011;7757;52.626;4.746;2023-09-19T04:12:39;12.35;;;1.65;;
15312;SDS011;7757;52.626;4.746;2023-09-19T04:15:06;12.48;;;1.90;;
15312;SDS011;7757;52.626;4.746;2023-09-19T04:17:33;12.30;;;2.17;;
15312;SDS011;7757;52.626;4.746;2023-09-19T04:19:59;14.38;;;1.73;;
15312;SDS011;7757;52.626;4.746;2023-09-19T04:22:25;9.93;;;1.80;;
15312;SDS011;7757;52.626;4.746;2023-09-19T04:24:51;13.27;;;2.00;;
15312;SDS011;7757;52.626;4.746;2023-09-19T04:27:16;17.08;;;2.47;;
15312;SDS011;7757;52.626;4.746;2023-09-19T04:29:42;16.92;;;1.90;;
15312;SDS011;7757;52.626;4.746;2023-09-19T04:32:08;15.90;;;1.85;;
15312;SDS011;7757;52.626;4.746;2023-09-19T04:34:34;9.85;;;1.70;;
15312;SDS011;7757;52.626;4.746;2023-09-19T04:37:00;12.50;;;2.00;;
15312;SDS011;7757;52.626;4.746;2023-09-19T04:39:27;11.55;;;1.80;;
15312;SDS011;7757;52.626;4.746;2023-09-19T04:41:53;10.07;;;1.88;;
15312;SDS011;7757;52.626;4.746;2023-09-19T04:44:20;10.30;;;1.60;;
15312;SDS011;7757;52.626;4.746;2023-09-19T04:46:46;13.90;;;2.28;;
15312;SDS011;7757;52.626;4.746;2023-09-19T04:49:12;10.25;;;1.77;;
15312;SDS011;7757;52.626;4.746;2023-09-19T04:51:39;12.02;;;1.70;;
15312;SDS011;7757;52.626;4.746;2023-09-19T04:54:05;9.15;;;1.65;;
15312;SDS011;7757;52.626;4.746;2023-09-19T04:56:31;11.05;;;1.70;;
15312;SDS011;7757;52.626;4.746;2023-09-19T04:59:00;25.65;;;1.67;;
15312;SDS011;7757;52.626;4.746;2023-09-19T05:01:26;14.40;;;1.77;;
15312;SDS011;7757;52.626;4.746;2023-09-19T05:03:52;14.02;;;2.13;;
15312;SDS011;7757;52.626;4.746;2023-09-19T05:06:20;10.32;;;1.90;;
15312;SDS011;7757;52.626;4.746;2023-09-19T05:08:46;15.30;;;2.35;;
15312;SDS011;7757;52.626;4.746;2023-09-19T05:11:16;9.88;;;1.80;;
15312;SDS011;7757;52.626;4.746;2023-09-19T05:13:42;11.18;;;1.85;;
15312;SDS011;7757;52.626;4.746;2023-09-19T05:16:08;11.90;;;1.55;;
15312;SDS011;7757;52.626;4.746;2023-09-19T05:18:35;9.80;;;1.52;;
15312;SDS011;7757;52.626;4.746;2023-09-19T05:21:01;16.08;;;2.03;;
15312;SDS011;7757;52.626;4.746;2023-09-19T05:23:30;9.13;;;1.55;;
15312;SDS011;7757;52.626;4.746;2023-09-19T05:25:56;14.45;;;1.98;;
15312;SDS011;7757;52.626;4.746;2023-09-19T05:28:23;9.00;;;1.70;;
15312;SDS011;7757;52.626;4.746;2023-09-19T05:30:49;11.90;;;1.55;;
15312;SDS011;7757;52.626;4.746;2023-09-19T05:33:15;10.80;;;1.67;;
15312;SDS011;7757;52.626;4.746;2023-09-19T05:35:40;11.85;;;1.65;;
15312;SDS011;7757;52.626;4.746;2023-09-19T05:38:07;9.45;;;1.85;;
15312;SDS011;7757;52.626;4.746;2023-09-19T05:40:40;12.90;;;1.88;;
15312;SDS011;7757;52.626;4.746;2023-09-19T05:43:10;9.13;;;1.50;;
15312;SDS011;7757;52.626;4.746;2023-09-19T05:45:35;11.15;;;1.92;;
15312;SDS011;7757;52.626;4.746;2023-09-19T05:48:08;9.75;;;1.40;;
15312;SDS011;7757;52.626;4.746;2023-09-19T05:50:34;10.25;;;1.60;;
15312;SDS011;7757;52.626;4.746;2023-09-19T05:53:01;10.40;;;1.80;;
15312;SDS011;7757;52.626;4.746;2023-09-19T05:55:26;9.80;;;1.67;;
15312;SDS011;7757;52.626;4.746;2023-09-19T05:57:53;9.93;;;1.80;;
15312;SDS011;7757;52.626;4.746;2023-09-19T06:00:20;11.02;;;1.73;;
15312;SDS011;7757;52.626;4.746;2023-09-19T06:02:52;10.90;;;1.90;;
15312;SDS011;7757;52.626;4.746;2023-09-19T06:05:20;11.63;;;2.13;;
15312;SDS011;7757;52.626;4.746;2023-09-19T06:07:46;14.38;;;2.13;;
15312;SDS011;7757;52.626;4.746;2023-09-19T06:10:13;10.60;;;1.63;;
15312;SDS011;7757;52.626;4.746;2023-09-19T06:12:40;13.82;;;2.08;;
15312;SDS011;7757;52.626;4.746;2023-09-19T06:15:09;10.43;;;1.88;;
15312;SDS011;7757;52.626;4.746;2023-09-19T06:17:40;10.45;;;1.60;;
15312;SDS011;7757;52.626;4.746;2023-09-19T06:20:06;10.18;;;1.60;;
15312;SDS011;7757;52.626;4.746;2023-09-19T06:22:38;11.80;;;2.50;;
15312;SDS011;7757;52.626;4.746;2023-09-19T06:25:07;11.90;;;1.80;;
15312;SDS011;7757;52.626;4.746;2023-09-19T06:27:44;12.20;;;1.85;;
15312;SDS011;7757;52.626;4.746;2023-09-19T06:30:13;13.80;;;1.98;;
15312;SDS011;7757;52.626;4.746;2023-09-19T06:32:42;15.10;;;2.45;;
15312;SDS011;7757;52.626;4.746;2023-09-19T06:35:15;15.32;;;2.70;;
15312;SDS011;7757;52.626;4.746;2023-09-19T06:37:41;13.90;;;2.60;;
15312;SDS011;7757;52.626;4.746;2023-09-19T06:40:13;14.65;;;2.63;;
15312;SDS011;7757;52.626;4.746;2023-09-19T06:42:41;14.77;;;2.40;;
15312;SDS011;7757;52.626;4.746;2023-09-19T06:45:09;12.40;;;2.25;;
15312;SDS011;7757;52.626;4.746;2023-09-19T06:47:38;14.80;;;2.60;;
15312;SDS011;7757;52.626;4.746;2023-09-19T06:50:04;13.93;;;2.20;;
15312;SDS011;7757;52.626;4.746;2023-09-19T06:52:31;15.50;;;2.53;;
15312;SDS011;7757;52.626;4.746;2023-09-19T06:55:00;12.25;;;2.25;;
15312;SDS011;7757;52.626;4.746;2023-09-19T06:57:29;14.80;;;2.10;;
15312;SDS011;7757;52.626;4.746;2023-09-19T06:59:55;10.85;;;2.10;;
15312;SDS011;7757;52.626;4.746;2023-09-19T07:02:21;17.33;;;2.33;;
15312;SDS011;7757;52.626;4.746;2023-09-19T07:04:47;21.58;;;2.20;;
15312;SDS011;7757;52.626;4.746;2023-09-19T07:07:12;11.85;;;2.15;;
15312;SDS011;7757;52.626;4.746;2023-09-19T07:09:39;13.20;;;2.10;;
15312;SDS011;7757;52.626;4.746;2023-09-19T07:12:04;10.90;;;2.00;;
15312;SDS011;7757;52.626;4.746;2023-09-19T07:14:30;16.63;;;2.22;;
15312;SDS011;7757;52.626;4.746;2023-09-19T07:16:55;14.05;;;2.08;;
15312;SDS011;7757;52.626;4.746;2023-09-19T07:19:21;12.75;;;1.85;;
15312;SDS011;7757;52.626;4.746;2023-09-19T07:21:49;14.48;;;2.40;;
15312;SDS011;7757;52.626;4.746;2023-09-19T07:24:16;12.48;;;2.38;;
15312;SDS011;7757;52.626;4.746;2023-09-19T07:26:41;10.98;;;1.80;;
15312;SDS011;7757;52.626;4.746;2023-09-19T07:29:07;13.43;;;2.22;;
15312;SDS011;7757;52.626;4.746;2023-09-19T07:31:33;13.95;;;2.03;;
15312;SDS011;7757;52.626;4.746;2023-09-19T07:34:00;14.77;;;2.40;;
15312;SDS011;7757;52.626;4.746;2023-09-19T07:36:26;11.60;;;2.08;;
15312;SDS011;7757;52.626;4.746;2023-09-19T07:38:51;10.43;;;1.98;;
15312;SDS011;7757;52.626;4.746;2023-09-19T07:41:16;10.60;;;1.90;;
15312;SDS011;7757;52.626;4.746;2023-09-19T07:43:42;12.00;;;2.30;;
15312;SDS011;7757;52.626;4.746;2023-09-19T07:46:09;12.60;;;1.92;;
15312;SDS011;7757;52.626;4.746;2023-09-19T07:48:35;9.50;;;2.00;;
15312;SDS011;7757;52.626;4.746;2023-09-19T07:51:02;12.68;;;2.15;;
15312;SDS011;7757;52.626;4.746;2023-09-19T07:53:34;12.50;;;2.00;;
15312;SDS011;7757;52.626;4.746;2023-09-19T07:56:06;11.63;;;1.90;;
15312;SDS011;7757;52.626;4.746;2023-09-19T07:58:34;9.60;;;1.80;;
15312;SDS011;7757;52.626;4.746;2023-09-19T08:01:07;14.10;;;1.88;;
15312;SDS011;7757;52.626;4.746;2023-09-19T08:03:34;12.90;;;2.33;;
15312;SDS011;7757;52.626;4.746;2023-09-19T08:06:00;11.63;;;2.10;;
15312;SDS011;7757;52.626;4.746;2023-09-19T08:08:26;9.75;;;1.90;;
15312;SDS011;7757;52.626;4.746;2023-09-19T08:10:53;12.32;;;2.28;;
15312;SDS011;7757;52.626;4.746;2023-09-19T08:13:21;10.27;;;2.03;;
15312;SDS011;7757;52.626;4.746;2023-09-19T08:15:51;11.82;;;2.45;;
15312;SDS011;7757;52.626;4.746;2023-09-19T08:18:18;13.55;;;2.17;;
15312;SDS011;7757;52.626;4.746;2023-09-19T08:20:48;13.43;;;2.33;;
15312;SDS011;7757;52.626;4.746;2023-09-19T08:23:15;13.88;;;2.03;;
15312;SDS011;7757;52.626;4.746;2023-09-19T08:29:05;9.98;;;1.90;;
15312;SDS011;7757;52.626;4.746;2023-09-19T08:31:32;12.70;;;2.25;;
15312;SDS011;7757;52.626;4.746;2023-09-19T08:33:58;13.43;;;2.47;;
15312;SDS011;7757;52.626;4.746;2023-09-19T08:36:26;12.55;;;2.33;;
15312;SDS011;7757;52.626;4.746;2023-09-19T08:38:54;16.25;;;2.40;;
15312;SDS011;7757;52.626;4.746;2023-09-19T08:41:20;10.60;;;2.00;;
15312;SDS011;7757;52.626;4.746;2023-09-19T08:43:48;14.45;;;2.10;;
15312;SDS011;7757;52.626;4.746;2023-09-19T08:46:16;12.15;;;2.08;;
15312;SDS011;7757;52.626;4.746;2023-09-19T08:48:58;19.70;;;2.40;;
15312;SDS011;7757;52.626;4.746;2023-09-19T08:51:30;12.82;;;2.10;;
15312;SDS011;7757;52.626;4.746;2023-09-19T08:54:06;13.43;;;2.80;;
15312;SDS011;7757;52.626;4.746;2023-09-19T08:56:34;15.57;;;3.00;;
15312;SDS011;7757;52.626;4.746;2023-09-19T08:59:04;14.70;;;2.80;;
15312;SDS011;7757;52.626;4.746;2023-09-19T09:01:32;13.65;;;2.45;;
15312;SDS011;7757;52.626;4.746;2023-09-19T09:03:58;10.55;;;1.70;;
15312;SDS011;7757;52.626;4.746;2023-09-19T09:06:25;13.30;;;2.13;;
15312;SDS011;7757;52.626;4.746;2023-09-19T09:08:53;16.42;;;2.28;;
15312;SDS011;7757;52.626;4.746;2023-09-19T09:11:19;16.88;;;2.30;;
15312;SDS011;7757;52.626;4.746;2023-09-19T09:13:46;14.35;;;2.08;;
15312;SDS011;7757;52.626;4.746;2023-09-19T09:16:19;12.88;;;2.15;;
15312;SDS011;7757;52.626;4.746;2023-09-19T09:18:46;11.63;;;1.83;;
15312;SDS011;7757;52.626;4.746;2023-09-19T09:21:17;10.40;;;1.80;;
15312;SDS011;7757;52.626;4.746;2023-09-19T09:23:43;15.73;;;2.28;;
15312;SDS011;7757;52.626;4.746;2023-09-19T09:26:09;12.18;;;1.90;;
15312;SDS011;7757;52.626;4.746;2023-09-19T09:28:35;11.77;;;2.05;;
15312;SDS011;7757;52.626;4.746;2023-09-19T09:31:15;11.55;;;2.10;;
15312;SDS011;7757;52.626;4.746;2023-09-19T09:33:52;14.55;;;2.55;;
15312;SDS011;7757;52.626;4.746;2023-09-19T09:36:33;12.52;;;2.30;;
15312;SDS011;7757;52.626;4.746;2023-09-19T09:38:59;14.10;;;2.60;;
15312;SDS011;7757;52.626;4.746;2023-09-19T09:41:40;16.77;;;2.10;;
15312;SDS011;7757;52.626;4.746;2023-09-19T09:44:12;13.55;;;2.35;;
15312;SDS011;7757;52.626;4.746;2023-09-19T09:46:43;12.70;;;2.55;;
15312;SDS011;7757;52.626;4.746;2023-09-19T09:49:22;16.48;;;2.45;;
15312;SDS011;7757;52.626;4.746;2023-09-19T09:52:02;17.48;;;2.58;;
15312;SDS011;7757;52.626;4.746;2023-09-19T09:54:32;12.65;;;2.28;;
15312;SDS011;7757;52.626;4.746;2023-09-19T09:57:01;12.38;;;2.25;;
15312;SDS011;7757;52.626;4.746;2023-09-19T09:59:51;14.13;;;2.28;;
15312;SDS011;7757;52.626;4.746;2023-09-19T10:02:44;13.93;;;2.50;;
15312;SDS011;7757;52.626;4.746;2023-09-19T10:05:20;13.85;;;2.30;;
15312;SDS011;7757;52.626;4.746;2023-09-19T10:07:53;13.45;;;2.83;;
15312;SDS011;7757;52.626;4.746;2023-09-19T10:10:34;13.25;;;2.17;;
15312;SDS011;7757;52.626;4.746;2023-09-19T10:13:19;14.65;;;2.50;;
15312;SDS011;7757;52.626;4.746;2023-09-19T10:15:50;14.13;;;2.45;;
15312;SDS011;7757;52.626;4.746;2023-09-19T10:18:25;14.60;;;2.67;;
15312;SDS011;7757;52.626;4.746;2023-09-19T10:20:53;14.30;;;2.53;;
15312;SDS011;7757;52.626;4.746;2023-09-19T10:23:20;19.60;;;3.38;;
15312;SDS011;7757;52.626;4.746;2023-09-19T10:25:51;18.63;;;2.97;;
15312;SDS011;7757;52.626;4.746;2023-09-19T10:28:18;16.63;;;3.00;;
15312;SDS011;7757;52.626;4.746;2023-09-19T10:30:49;15.43;;;2.40;;
15312;SDS011;7757;52.626;4.746;2023-09-19T10:33:17;16.80;;;2.67;;
15312;SDS011;7757;52.626;4.746;2023-09-19T10:35:48;17.40;;;3.10;;
15312;SDS011;7757;52.626;4.746;2023-09-19T10:38:24;16.15;;;2.75;;
15312;SDS011;7757;52.626;4.746;2023-09-19T10:41:01;17.13;;;2.55;;
15312;SDS011;7757;52.626;4.746;2023-09-19T10:43:32;15.73;;;2.72;;
15312;SDS011;7757;52.626;4.746;2023-09-19T10:46:02;20.05;;;3.67;;
15312;SDS011;7757;52.626;4.746;2023-09-19T10:48:32;19.08;;;2.97;;
15312;SDS011;7757;52.626;4.746;2023-09-19T10:51:01;20.80;;;3.17;;
15312;SDS011;7757;52.626;4.746;2023-09-19T10:56:15;18.95;;;2.90;;
15312;SDS011;7757;52.626;4.746;2023-09-19T10:58:44;19.00;;;3.30;;
15312;SDS011;7757;52.626;4.746;2023-09-19T11:01:10;13.90;;;2.40;;
15312;SDS011;7757;52.626;4.746;2023-09-19T11:03:43;16.50;;;2.90;;
15312;SDS011;7757;52.626;4.746;2023-09-19T11:06:16;19.13;;;2.70;;
15312;SDS011;7757;52.626;4.746;2023-09-19T11:08:54;17.27;;;2.70;;
15312;SDS011;7757;52.626;4.746;2023-09-19T11:11:50;11.55;;;2.20;;
15312;SDS011;7757;52.626;4.746;2023-09-19T11:30:48;14.80;;;2.50;;
15312;SDS011;7757;52.626;4.746;2023-09-19T11:33:31;14.82;;;2.60;;
15312;SDS011;7757;52.626;4.746;2023-09-19T11:35:59;17.02;;;3.28;;
15312;SDS011;7757;52.626;4.746;2023-09-19T11:43:51;15.50;;;2.85;;
15312;SDS011;7757;52.626;4.746;2023-09-19T11:46:20;17.02;;;3.13;;
15312;SDS011;7757;52.626;4.746;2023-09-19T11:48:48;16.58;;;2.92;;
15312;SDS011;7757;52.626;4.746;2023-09-19T11:51:17;17.10;;;2.78;;
15312;SDS011;7757;52.626;4.746;2023-09-19T11:53:46;16.10;;;2.67;;
15312;SDS011;7757;52.626;4.746;2023-09-19T11:56:15;17.38;;;2.80;;
15312;SDS011;7757;52.626;4.746;2023-09-19T11:58:43;15.70;;;2.85;;
15312;SDS011;7757;52.626;4.746;2023-09-19T12:01:14;11.65;;;2.20;;
15312;SDS011;7757;52.626;4.746;2023-09-19T12:03:46;14.43;;;2.42;;
15312;SDS011;7757;52.626;4.746;2023-09-19T12:06:19;11.30;;;2.17;;
15312;SDS011;7757;52.626;4.746;2023-09-19T12:08:46;20.40;;;2.72;;
15312;SDS011;7757;52.626;4.746;2023-09-19T12:11:14;12.98;;;2.40;;
15312;SDS011;7757;52.626;4.746;2023-09-19T12:13:47;16.65;;;2.50;;
15312;SDS011;7757;52.626;4.746;2023-09-19T12:16:17;15.75;;;2.45;;
15312;SDS011;7757;52.626;4.746;2023-09-19T12:18:47;18.23;;;2.55;;
15312;SDS011;7757;52.626;4.746;2023-09-19T12:24:03;17.52;;;2.97;;
15312;SDS011;7757;52.626;4.746;2023-09-19T12:26:37;13.07;;;2.85;;
15312;SDS011;7757;52.626;4.746;2023-09-19T12:29:09;13.43;;;2.67;;
15312;SDS011;7757;52.626;4.746;2023-09-19T12:31:46;12.80;;;3.00;;
15312;SDS011;7757;52.626;4.746;2023-09-19T12:39:40;13.40;;;2.38;;
15312;SDS011;7757;52.626;4.746;2023-09-19T12:42:11;13.90;;;2.38;;
15312;SDS011;7757;52.626;4.746;2023-09-19T12:44:40;18.80;;;3.10;;
15312;SDS011;7757;52.626;4.746;2023-09-19T12:47:10;18.73;;;2.90;;
15312;SDS011;7757;52.626;4.746;2023-09-19T12:52:42;16.30;;;2.70;;
15312;SDS011;7757;52.626;4.746;2023-09-19T12:58:12;15.95;;;2.70;;
15312;SDS011;7757;52.626;4.746;2023-09-19T13:00:41;19.13;;;2.90;;
15312;SDS011;7757;52.626;4.746;2023-09-19T13:08:17;23.38;;;3.20;;
15312;SDS011;7757;52.626;4.746;2023-09-19T13:11:14;24.85;;;3.90;;
15312;SDS011;7757;52.626;4.746;2023-09-19T13:14:29;13.43;;;2.67;;
15312;SDS011;7757;52.626;4.746;2023-09-19T13:25:10;16.80;;;3.22;;
15312;SDS011;7757;52.626;4.746;2023-09-19T13:27:50;17.90;;;3.30;;
15312;SDS011;7757;52.626;4.746;2023-09-19T13:30:17;18.00;;;3.08;;
15312;SDS011;7757;52.626;4.746;2023-09-19T13:32:43;16.05;;;3.08;;
15312;SDS011;7757;52.626;4.746;2023-09-19T13:35:09;18.10;;;2.88;;
15312;SDS011;7757;52.626;4.746;2023-09-19T13:37:35;19.65;;;3.35;;
15312;SDS011;7757;52.626;4.746;2023-09-19T13:40:04;21.27;;;3.53;;
15312;SDS011;7757;52.626;4.746;2023-09-19T13:42:31;20.83;;;3.70;;
15312;SDS011;7757;52.626;4.746;2023-09-19T13:44:57;17.60;;;3.10;;
15312;SDS011;7757;52.626;4.746;2023-09-19T13:47:23;19.15;;;3.40;;
15312;SDS011;7757;52.626;4.746;2023-09-19T13:49:50;21.98;;;3.42;;
15312;SDS011;7757;52.626;4.746;2023-09-19T13:52:21;15.57;;;3.03;;
15312;SDS011;7757;52.626;4.746;2023-09-19T13:54:50;16.17;;;3.28;;
15312;SDS011;7757;52.626;4.746;2023-09-19T13:57:15;17.38;;;3.22;;
15312;SDS011;7757;52.626;4.746;2023-09-19T13:59:42;17.95;;;3.42;;
15312;SDS011;7757;52.626;4.746;2023-09-19T14:02:07;18.90;;;3.05;;
15312;SDS011;7757;52.626;4.746;2023-09-19T14:04:34;18.77;;;3.30;;
15312;SDS011;7757;52.626;4.746;2023-09-19T14:07:01;20.08;;;3.30;;
15312;SDS011;7757;52.626;4.746;2023-09-19T14:09:27;21.60;;;3.67;;
15312;SDS011;7757;52.626;4.746;2023-09-19T14:11:52;20.52;;;3.38;;
15312;SDS011;7757;52.626;4.746;2023-09-19T14:14:21;21.05;;;3.60;;
15312;SDS011;7757;52.626;4.746;2023-09-19T14:16:47;19.48;;;3.83;;
15312;SDS011;7757;52.626;4.746;2023-09-19T14:19:13;17.13;;;3.33;;
15312;SDS011;7757;52.626;4.746;2023-09-19T14:21:41;18.23;;;3.33;;
15312;SDS011;7757;52.626;4.746;2023-09-19T14:24:08;21.05;;;3.70;;
15312;SDS011;7757;52.626;4.746;2023-09-19T14:26:35;23.58;;;3.58;;
15312;SDS011;7757;52.626;4.746;2023-09-19T14:29:01;19.00;;;3.80;;
15312;SDS011;7757;52.626;4.746;2023-09-19T14:31:29;21.75;;;3.58;;
15312;SDS011;7757;52.626;4.746;2023-09-19T14:34:00;23.52;;;3.53;;
15312;SDS011;7757;52.626;4.746;2023-09-19T14:36:25;21.40;;;4.00;;
15312;SDS011;7757;52.626;4.746;2023-09-19T14:38:55;23.58;;;3.53;;
15312;SDS011;7757;52.626;4.746;2023-09-19T14:41:22;20.35;;;3.72;;
15312;SDS011;7757;52.626;4.746;2023-09-19T14:43:53;20.40;;;3.60;;
15312;SDS011;7757;52.626;4.746;2023-09-19T14:46:22;20.27;;;3.45;;
15312;SDS011;7757;52.626;4.746;2023-09-19T14:48:49;24.70;;;4.22;;
15312;SDS011;7757;52.626;4.746;2023-09-19T14:51:16;20.23;;;4.10;;
15312;SDS011;7757;52.626;4.746;2023-09-19T14:53:42;21.52;;;4.45;;
15312;SDS011;7757;52.626;4.746;2023-09-19T14:56:08;20.35;;;4.35;;
15312;SDS011;7757;52.626;4.746;2023-09-19T14:58:36;25.25;;;3.90;;
15312;SDS011;7757;52.626;4.746;2023-09-19T15:01:10;21.85;;;4.05;;
15312;SDS011;7757;52.626;4.746;2023-09-19T15:03:37;24.02;;;3.53;;
15312;SDS011;7757;52.626;4.746;2023-09-19T15:06:11;20.20;;;3.58;;
15312;SDS011;7757;52.626;4.746;2023-09-19T15:08:39;17.33;;;3.25;;
15312;SDS011;7757;52.626;4.746;2023-09-19T15:11:06;19.85;;;4.00;;
15312;SDS011;7757;52.626;4.746;2023-09-19T15:13:32;21.25;;;3.75;;
15312;SDS011;7757;52.626;4.746;2023-09-19T15:16:06;24.50;;;3.45;;
15312;SDS011;7757;52.626;4.746;2023-09-19T15:18:45;19.20;;;3.50;;
15312;SDS011;7757;52.626;4.746;2023-09-19T15:21:13;21.42;;;4.25;;
15312;SDS011;7757;52.626;4.746;2023-09-19T15:23:40;20.02;;;4.18;;
15312;SDS011;7757;52.626;4.746;2023-09-19T15:26:08;23.40;;;3.97;;
15312;SDS011;7757;52.626;4.746;2023-09-19T15:28:36;25.30;;;4.10;;
15312;SDS011;7757;52.626;4.746;2023-09-19T15:31:06;22.70;;;4.85;;
15312;SDS011;7757;52.626;4.746;2023-09-19T15:33:36;22.65;;;4.05;;
15312;SDS011;7757;52.626;4.746;2023-09-19T15:36:09;28.92;;;4.15;;
15312;SDS011;7757;52.626;4.746;2023-09-19T15:41:22;27.92;;;4.20;;
15312;SDS011;7757;52.626;4.746;2023-09-19T15:43:47;25.58;;;4.10;;
15312;SDS011;7757;52.626;4.746;2023-09-19T15:46:14;18.63;;;3.90;;
15312;SDS011;7757;52.626;4.746;2023-09-19T15:48:41;25.15;;;4.38;;
15312;SDS011;7757;52.626;4.746;2023-09-19T15:51:07;23.15;;;4.28;;
15312;SDS011;7757;52.626;4.746;2023-09-19T15:53:41;20.95;;;3.85;;
15312;SDS011;7757;52.626;4.746;2023-09-19T15:56:09;20.38;;;3.42;;
15312;SDS011;7757;52.626;4.746;2023-09-19T15:58:36;22.83;;;3.45;;
15312;SDS011;7757;52.626;4.746;2023-09-19T16:01:08;23.50;;;3.75;;
15312;SDS011;7757;52.626;4.746;2023-09-19T16:03:37;21.92;;;4.03;;
15312;SDS011;7757;52.626;4.746;2023-09-19T16:06:10;20.98;;;3.90;;
15312;SDS011;7757;52.626;4.746;2023-09-19T16:08:40;24.05;;;3.47;;
15312;SDS011;7757;52.626;4.746;2023-09-19T16:11:09;20.13;;;3.70;;
15312;SDS011;7757;52.626;4.746;2023-09-19T16:13:38;24.20;;;4.32;;
15312;SDS011;7757;52.626;4.746;2023-09-19T16:16:06;26.20;;;3.67;;
15312;SDS011;7757;52.626;4.746;2023-09-19T16:18:34;20.85;;;3.65;;